NCAR-RAP Real-Time Weather Data

Output produced by METARs form (06 May 2021  16:31 UTC)
found at http://weather.rap.ucar.edu/surface/
 
KMHS 061556Z AUTO 00000KT 10SM CLR 18/03 A2999 RMK AO2 SLP151 T01830028
KMHS 061456Z AUTO 12004KT 10SM CLR 17/02 A2999 RMK AO2 SLP147 T01720017 53007
KMHS 061356Z AUTO 10004KT 10SM CLR 16/01 A2998 RMK AO2 SLP141 T01560006
KMHS 061256Z AUTO VRB03KT 10SM CLR 16/02 A2998 RMK AO2 SLP136 T01560017
KMHS 061156Z AUTO 10004KT 10SM CLR 16/02 A2997 RMK AO2 SLP134 T01610022 10183 20111 53000
KMHS 061056Z AUTO 10003KT 10SM CLR 17/02 A2997 RMK AO2 SLP130 T01670022
KMHS 060956Z AUTO 09003KT 10SM CLR 17/02 A2996 RMK AO2 SLP129 T01720017
KMHS 060856Z AUTO 00000KT 10SM CLR 18/02 A2997 RMK AO2 SLP130 T01780017 58006
KMHS 060756Z AUTO 10003KT 10SM CLR 18/01 A2998 RMK AO2 SLP135 T01830011 402780033
KMHS 060656Z AUTO 00000KT 10SM CLR 12/02 A2999 RMK AO2 SLP146 T01220022
KMHS 060556Z AUTO 00000KT 10SM CLR 12/02 A2999 RMK AO2 SLP149 T01170022 10261 20117 51014
KMHS 060456Z AUTO 00000KT 10SM CLR 13/02 A2999 RMK AO2 SLP150 T01330022
KMHS 060356Z AUTO 00000KT 10SM CLR 16/02 A2996 RMK AO2 SLP141 T01610022